METAR Data
IDs: Format: Raw Decoded Include TAF

Data at: 0657 UTC 03 Aug 2021

KSQL 030655Z AUTO 00000KT 10SM CLR 15/12 A3005 RMK AO2
KSQL 030635Z AUTO 00000KT 10SM CLR 15/12 A3006 RMK AO2
KSQL 030615Z AUTO 32006KT 10SM CLR 15/12 A3006 RMK AO2
KSQL 030555Z AUTO 00000KT 10SM CLR 15/12 A3006 RMK AO2
KSQL 030535Z AUTO 31007KT 10SM CLR 16/12 A3006 RMK AO2
KSQL 030515Z AUTO 31009KT 10SM CLR 16/12 A3006 RMK AO2
KSQL 030455Z AUTO 32009KT 10SM CLR 17/12 A3005 RMK AO2
KSQL 030435Z AUTO 32009KT 10SM CLR 17/12 A3004 RMK AO2
KSQL 030415Z AUTO 32007KT 10SM CLR 17/12 A3004 RMK AO2
KSQL 030358Z 30008KT 10SM SCT200 18/12 A3004 RMK LAST
KSQL 030256Z 29009KT 10SM SCT200 20/12 A3003
KSQL 030156Z 29008KT 10SM SCT200 21/11 A3003
KSQL 030050Z 36010KT 10SM SCT200 23/14 A3004
KSQL 022258Z 34010KT 10SM SCT200 22/13 A3006
KSQL 022147Z 35008KT 10SM FEW020 23/13 A3008
KSQL 022047Z 35008KT 10SM FEW020 22/13 A3009
KSQL 021947Z 36010KT 10SM FEW020 20/14 A3011
KSQL 021847Z 36008KT 10SM FEW015 19/14 A3012
KSQL 021747Z 00000KT 10SM FEW015 19/13 A3012
KSQL 021647Z 00000KT 10SM FEW017 18/13 A3012
KSQL 021547Z 00000KT 10SM OVC015 17/13 A3013
KSQL 021447Z 00000KT 10SM BKN015 15/12 A3013
KSQL 021355Z AUTO 00000KT 10SM SCT015 15/12 A3012 RMK AO2
KSQL 021347Z 00000KT 10SM FEW020 15/12 A3012
KSQL 021335Z AUTO 00000KT 10SM CLR 14/12 A3012 RMK AO2
KSQL 021315Z AUTO 00000KT 10SM CLR 14/12 A3011 RMK AO2
KSQL 021255Z AUTO 00000KT 10SM CLR 15/12 A3010 RMK AO2
KSQL 021235Z AUTO 00000KT 10SM CLR 15/12 A3009 RMK AO2
KSQL 021215Z AUTO 00000KT 10SM CLR 15/12 A3009 RMK AO2
KSQL 021155Z AUTO 00000KT 10SM CLR 15/12 A3009 RMK AO2
KSQL 021135Z AUTO 00000KT 10SM CLR 15/12 A3009 RMK AO2
KSQL 021115Z AUTO 00000KT 10SM CLR 15/12 A3009 RMK AO2
KSQL 021055Z AUTO 00000KT 10SM CLR 15/12 A3009 RMK AO2
KSQL 021035Z AUTO 00000KT 10SM CLR 15/12 A3009 RMK AO2
KSQL 021015Z AUTO 00000KT 10SM CLR 15/12 A3009 RMK AO2
KSQL 020955Z AUTO 00000KT 10SM CLR 15/12 A3009 RMK AO2
KSQL 020935Z AUTO 00000KT 10SM CLR 15/12 A3009 RMK AO2
KSQL 020915Z AUTO 00000KT 10SM CLR 15/12 A3009 RMK AO2
KSQL 020855Z AUTO 00000KT 10SM CLR 16/12 A3009 RMK AO2
KSQL 020835Z AUTO 00000KT 10SM CLR 16/12 A3010 RMK AO2
KSQL 020815Z AUTO 00000KT 10SM CLR 16/12 A3010 RMK AO2
KSQL 020755Z AUTO 00000KT 10SM CLR 16/12 A3010 RMK AO2
KSQL 020735Z AUTO 00000KT 10SM CLR 17/12 A3010 RMK AO2
KSQL 020715Z AUTO 00000KT 10SM CLR 17/12 A3010 RMK AO2
KSQL 020655Z AUTO 00000KT 10SM CLR 17/12 A3010 RMK AO2
KSQL 020635Z AUTO 00000KT 10SM CLR 17/12 A3009 RMK AO2
KSQL 020615Z AUTO 00000KT 10SM CLR 17/12 A3009 RMK AO2
KSQL 020555Z AUTO 00000KT 10SM CLR 17/12 A3009 RMK AO2
KSQL 020535Z AUTO 00000KT 10SM CLR 17/12 A3009 RMK AO2
KSQL 020515Z AUTO 00000KT 10SM CLR 17/12 A3009 RMK AO2
KSQL 020455Z AUTO 00000KT 10SM CLR 17/12 A3008 RMK AO2
KSQL 020435Z AUTO 26005KT 10SM CLR 17/12 A3008 RMK AO2
KSQL 020415Z AUTO 26007KT 10SM CLR 17/12 A3007 RMK AO2
KSQL 020358Z 24005KT 10SM FEW050 18/12 A3007 RMK LAST
KSQL 020258Z 24009KT 10SM FEW050 18/12 A3006
KSQL 020153Z 26008KT 10SM FEW010 21/12 A3003
KSQL 020047Z 26011KT 10SM FEW010 23/12 A3003
KSQL 012347Z 27011KT 10SM FEW010 23/13 A3004
KSQL 012247Z 27011G15KT 10SM FEW010 23/13 A3005
KSQL 012158Z 26011KT 10SM FEW010 23/13 A3005
KSQL 012050Z 28008KT 10SM FEW010 23/13 A3006
KSQL 011950Z 01010G16KT 10SM FEW010 20/15 A3007